Oxford, Canada
Current Conditions -  °F | °C
As of 12:00 PM on Saturday 25 Oct 2014 (Local Time) from CYQM Reporting Station
Drizzle Drizzle  
Wind Chill: 41°   Ceiling: 500
Heat Index: 46°   Visibility: 1.5mi
Dew Point: 46°   Wind: 12mph
Humidity: 100%   Direction: 360°N
Pressure: 29.51"   Gusts: NA
Location:  45.73°N, 63.87°W
Report Text: CYQM 251500Z 36010KT 1 1/2SM -DZ BR OVC005 08/08 A2951 RMK SF8 SLP996
Loading
Personal Weather Stations






























Interactive Weather Map New forecast layout! Learn more

10-Day Weather Forecast

Advertisements
Track Severe Weather on mobile